Hlavní strana
METAR-TAF:

METAR-TAF

Letiště :

Cairns, Austrálie

zeměpisná šířka: 16-53S, zeměpisná délka: 145-45E, výška: 3 m

Aktuální stav počasí

Zpráva byla vytvořena před 27 minutami, v 07:30 UTC
Jihovýchodní vítr 10 kt
Teplota 28°C
Vlhkost vzduchu 70%
Tlak 1010 hPa
Viditelnost 10 km a více
Oblačno až skoro zataženo ve výšce 5000 ft

METAR: YBCS 260730Z AUTO 14010KT 9999 // BKN050 28/22 Q1010 RMK RF00.0/000.0 NOSIG

Čas: 17:57 (07:57 UTC)

Předpověď počasí

Zpráva byla vytvořena před 2 hodinami a 19 minutami, v 05:38 UTC
Předpověď platná od 26 v 06 UTC do 27 v 06 UTC
Východojihovýchodní vítr 8 kt
Viditelnost 10 km a více
Polojasno ve výšce 3500 ft
Od 26 v 0800 UTC
Jihojihovýchodní vítr 8 kt
Viditelnost 10 km a více
Polojasno ve výšce 2500 ft
Polojasno ve výšce 3500 ft
Od 27 v 0100 UTC
Východní vítr 14 kt
Viditelnost 10 km a více
Polojasno ve výšce 3000 ft
Polojasno ve výšce 4500 ft

TAF: YBCS 260538Z 2606/2706 11008KT 9999 SCT035 FM260800 16008KT 9999 SCT025 SCT035 FM270100 10014KT 9999 SCT030 SCT045

Stav a předpovědi počasí z více než 4 000 letišť (zprávy METAR a TAF).

Červené a žluté tečky na mapě představují dostupné meteorologické stanice.

Když kurzor umístíte na tečku, zobrazí se název stanice.

Pak kliknutím zobrazíte stav a předpověď počasí.

Chcete-li změnit mapu, kliknutím na zelené tlačítko se znaménkem +mapu přiblížíte, kliknutím na zelené tlačítko se znaménkem – mapu oddálíte a kliknutím na zelené šipky přejdete na sousední mapy.


METAR-TAF: